createdAt,value
2023-04-15T00:05:18.452Z,6.88
2023-04-15T00:11:20.103Z,8.57
2023-04-15T00:17:21.544Z,8.65
2023-04-15T00:23:23.401Z,10.73
2023-04-15T00:29:25.289Z,8.55
2023-04-15T00:35:26.878Z,10.10
2023-04-15T00:41:28.346Z,11.27
2023-04-15T00:47:30.472Z,10.23
2023-04-15T00:53:31.897Z,8.60
2023-04-15T00:59:33.864Z,8.60
2023-04-15T01:05:35.577Z,8.07
2023-04-15T01:11:37.119Z,9.03
2023-04-15T01:17:39.244Z,8.40
2023-04-15T01:23:43.222Z,8.57
2023-04-15T01:29:44.667Z,8.73
2023-04-15T01:35:47.166Z,9.75
2023-04-15T01:41:49.711Z,8.50
2023-04-15T01:47:51.380Z,8.27
2023-04-15T01:53:53.410Z,8.20
2023-04-15T01:59:54.938Z,8.05
2023-04-15T02:05:56.676Z,12.98
2023-04-15T02:11:58.277Z,10.70
2023-04-15T02:18:00.873Z,9.48
2023-04-15T02:24:02.543Z,7.67
2023-04-15T02:30:04.195Z,6.95
2023-04-15T02:36:06.330Z,7.07
2023-04-15T02:42:07.845Z,7.80
2023-04-15T02:48:09.586Z,7.03
2023-04-15T02:54:11.426Z,6.57
2023-04-15T03:00:14.112Z,6.03
2023-04-15T03:06:17.642Z,6.75
2023-04-15T03:12:19.153Z,6.47
2023-04-15T03:18:20.596Z,7.53
2023-04-15T03:24:22.303Z,6.63
2023-04-15T03:30:24.196Z,8.85
2023-04-15T03:36:26.224Z,9.23
2023-04-15T03:42:27.738Z,9.37
2023-04-15T03:48:29.263Z,10.60
2023-04-15T03:54:30.950Z,8.97
2023-04-15T04:00:32.399Z,9.50
2023-04-15T04:06:33.924Z,9.15
2023-04-15T04:12:35.435Z,9.60
2023-04-15T04:18:36.804Z,10.20
2023-04-15T04:24:38.174Z,9.97
2023-04-15T04:30:40.002Z,9.63
2023-04-15T04:36:41.502Z,8.02
2023-04-15T04:42:42.919Z,8.57
2023-04-15T04:48:46.613Z,8.93
2023-04-15T04:54:48.593Z,10.50
2023-04-15T05:00:50.154Z,9.52
2023-04-15T05:06:51.687Z,10.80
2023-04-15T05:12:53.088Z,11.67
2023-04-15T05:18:54.483Z,10.50
2023-04-15T05:24:56.198Z,9.33
2023-04-15T05:30:57.852Z,9.02
2023-04-15T05:36:59.499Z,9.70
2023-04-15T05:43:01.126Z,10.50
2023-04-15T05:49:02.804Z,8.55
2023-04-15T05:55:04.559Z,8.60
2023-04-15T06:01:06.411Z,8.45
2023-04-15T06:07:07.842Z,7.63
2023-04-15T06:13:09.252Z,7.70
2023-04-15T06:19:10.773Z,6.72
2023-04-15T06:25:12.276Z,6.40
2023-04-15T06:31:14.127Z,7.18
2023-04-15T06:37:16.057Z,7.93
2023-04-15T06:43:17.425Z,7.20
2023-04-15T06:49:18.818Z,7.35
2023-04-15T06:55:20.652Z,8.17
2023-04-15T07:01:22.451Z,8.80
2023-04-15T07:07:23.948Z,8.73
2023-04-15T07:13:25.397Z,9.93
2023-04-15T07:19:27.109Z,9.43
2023-04-15T07:25:28.510Z,9.80
2023-04-15T07:31:30.160Z,9.35
2023-04-15T07:37:32.193Z,9.98
2023-04-15T07:43:33.728Z,10.53
2023-04-15T07:49:35.161Z,13.77
2023-04-15T07:55:36.549Z,12.20
2023-04-15T08:01:38.904Z,11.65
2023-04-15T08:07:40.743Z,12.90
2023-04-15T08:13:42.523Z,12.47
2023-04-15T08:19:44.006Z,11.80
2023-04-15T08:25:45.441Z,9.90
2023-04-15T08:31:47.638Z,12.43
2023-04-15T08:37:49.200Z,14.35
2023-04-15T08:44:04.217Z,12.93
2023-04-15T08:50:09.044Z,14.60
2023-04-15T08:56:11.234Z,16.43
2023-04-15T09:02:12.710Z,17.92
2023-04-15T09:08:14.741Z,15.25
2023-04-15T09:14:16.922Z,15.77
2023-04-15T09:20:21.354Z,17.52
2023-04-15T09:26:31.819Z,20.27
2023-04-15T09:32:33.335Z,21.38
2023-04-15T09:38:34.955Z,18.63
2023-04-15T09:44:37.579Z,21.27
2023-04-15T09:50:41.198Z,22.48
2023-04-15T09:56:43.011Z,24.17
2023-04-15T10:02:47.052Z,26.17
2023-04-15T10:08:48.953Z,27.10
2023-04-15T10:14:56.625Z,25.10
2023-04-15T10:21:00.517Z,28.77
2023-04-15T10:27:03.759Z,27.60
2023-04-15T10:33:05.682Z,27.85
2023-04-15T10:39:26.078Z,28.30
2023-04-15T10:45:37.348Z,27.17
2023-04-15T10:51:42.798Z,27.30
2023-04-15T10:57:44.555Z,24.67
2023-04-15T11:03:46.563Z,27.50
2023-04-15T11:09:48.104Z,29.48
2023-04-15T11:15:49.877Z,31.80
2023-04-15T11:21:51.838Z,29.30
2023-04-15T11:27:54.516Z,29.03
2023-04-15T11:33:57.194Z,23.77
2023-04-15T11:39:58.895Z,27.88
2023-04-15T11:46:01.883Z,25.97
2023-04-15T11:52:10.450Z,24.58
2023-04-15T11:58:15.107Z,25.47
2023-04-15T12:04:23.232Z,24.27
2023-04-15T12:10:26.672Z,23.15
2023-04-15T12:16:28.739Z,23.70
2023-04-15T12:22:30.555Z,24.10
2023-04-15T12:28:32.057Z,22.57
2023-04-15T12:34:34.842Z,21.80
2023-04-15T12:40:36.432Z,18.52
2023-04-15T12:46:38.242Z,19.93
2023-04-15T12:52:39.836Z,19.67
2023-04-15T12:58:41.312Z,19.10
2023-04-15T13:04:42.859Z,18.50
2023-04-15T13:10:44.390Z,17.83
2023-04-15T13:16:45.867Z,18.87
2023-04-15T13:22:47.313Z,16.65
2023-04-15T13:28:48.900Z,17.40
2023-04-15T13:34:50.593Z,13.55
2023-04-15T13:40:52.453Z,13.55
2023-04-15T13:46:54.063Z,13.80
2023-04-15T13:52:55.530Z,12.32
2023-04-15T13:58:58.961Z,14.60
2023-04-15T14:05:00.741Z,16.75
2023-04-15T14:11:02.190Z,14.60
2023-04-15T14:17:04.466Z,13.90
2023-04-15T14:23:05.948Z,14.98
2023-04-15T14:29:07.484Z,16.13
2023-04-15T14:35:09.133Z,12.93
2023-04-15T14:41:10.660Z,14.07
2023-04-15T14:47:12.846Z,14.03
2023-04-15T14:53:14.364Z,14.23
2023-04-15T14:59:15.841Z,15.63
2023-04-15T15:05:17.457Z,17.23
2023-04-15T15:11:19.027Z,14.63
2023-04-15T15:17:20.684Z,15.10
2023-04-15T15:23:22.122Z,13.05
2023-04-15T15:29:23.733Z,16.17
2023-04-15T15:35:25.967Z,12.77
2023-04-15T15:41:27.489Z,13.82
2023-04-15T15:47:28.948Z,14.27
2023-04-15T15:53:30.460Z,14.57
2023-04-15T15:59:33.092Z,12.77
2023-04-15T16:05:35.042Z,13.73
2023-04-15T16:11:36.603Z,13.13
2023-04-15T16:17:38.102Z,16.23
2023-04-15T16:23:39.794Z,16.75
2023-04-15T16:29:41.648Z,15.63
2023-04-15T16:35:43.115Z,15.10
2023-04-15T16:41:44.742Z,17.52
2023-04-15T16:47:46.193Z,16.90
2023-04-15T16:53:48.423Z,15.88
2023-04-15T16:59:49.830Z,18.63
2023-04-15T17:05:51.293Z,15.73
2023-04-15T17:11:52.765Z,18.15
2023-04-15T17:17:54.337Z,15.83
2023-04-15T17:23:56.047Z,16.55
2023-04-15T17:29:57.794Z,17.47
2023-04-15T17:36:19.236Z,51.65
2023-04-15T17:42:41.315Z,47.30
2023-04-15T17:49:03.348Z,18.03
2023-04-15T17:55:25.225Z,18.90
2023-04-15T18:01:46.757Z,16.47
2023-04-15T18:08:08.312Z,19.25
2023-04-15T18:14:34.621Z,19.10
2023-04-15T18:20:56.301Z,20.80
2023-04-15T18:26:59.042Z,19.35
2023-04-15T18:33:00.891Z,21.97
2023-04-15T18:39:03.236Z,25.67
2023-04-15T18:45:05.429Z,22.40
2023-04-15T18:51:07.155Z,22.03
2023-04-15T18:57:08.974Z,28.30
2023-04-15T19:03:11.687Z,32.00
2023-04-15T19:09:13.340Z,30.38
2023-04-15T19:15:14.908Z,32.22
2023-04-15T19:21:16.628Z,26.87
2023-04-15T19:27:18.321Z,41.50
2023-04-15T19:33:19.983Z,28.70
2023-04-15T19:39:22.061Z,27.25
2023-04-15T19:45:23.852Z,31.05
2023-04-15T19:51:26.624Z,25.77
2023-04-15T19:57:28.514Z,28.50
2023-04-15T20:03:30.720Z,27.30
2023-04-15T20:09:32.350Z,27.50
2023-04-15T20:15:33.870Z,29.45
2023-04-15T20:21:35.993Z,30.40
2023-04-15T20:27:37.463Z,36.58
2023-04-15T20:33:39.053Z,31.87
2023-04-15T20:39:40.732Z,32.92
2023-04-15T20:45:42.274Z,34.08
2023-04-15T20:51:43.774Z,35.97
2023-04-15T20:57:45.362Z,39.67
2023-04-15T21:03:47.150Z,34.00
2023-04-15T21:09:49.217Z,34.13
2023-04-15T21:15:53.363Z,34.60
2023-04-15T21:21:54.835Z,33.17
2023-04-15T21:27:56.216Z,33.58
2023-04-15T21:33:57.668Z,31.77
2023-04-15T21:39:59.477Z,43.35
2023-04-15T21:46:22.313Z,37.72
2023-04-15T21:52:22.349Z,39.23
2023-04-15T21:58:23.776Z,43.45
2023-04-15T22:04:25.574Z,37.70
2023-04-15T22:10:27.295Z,38.45
2023-04-15T22:16:28.895Z,45.25
2023-04-15T22:22:44.241Z,42.13
2023-04-15T22:28:46.195Z,45.53
2023-04-15T22:34:47.679Z,50.70
2023-04-15T22:40:49.092Z,38.22
2023-04-15T22:46:51.389Z,50.40
2023-04-15T22:52:52.780Z,45.93
2023-04-15T22:58:54.209Z,40.30
2023-04-15T23:04:55.822Z,57.83
2023-04-15T23:10:57.483Z,46.30
2023-04-15T23:16:59.039Z,46.88
2023-04-15T23:23:00.545Z,47.50
2023-04-15T23:29:02.016Z,45.65
2023-04-15T23:35:03.910Z,51.80
2023-04-15T23:41:05.567Z,45.90
2023-04-15T23:47:07.156Z,44.83
2023-04-15T23:53:08.589Z,55.40
2023-04-15T23:59:10.149Z,48.75
